sensor_id;sensor_type;location;lat;lon;timestamp;noise_LAeq;noise_LA_min;noise_LA_max;noise_LA01;noise_LA95
4048;Laerm;2038;51.728;6.674;2024-03-08T00:00:29;35.61;26.91;38.81;;
4048;Laerm;2038;51.728;6.674;2024-03-08T00:02:59;35.67;26.91;38.95;;
4048;Laerm;2038;51.728;6.674;2024-03-08T00:05:27;35.64;23.90;39.08;;
4048;Laerm;2038;51.728;6.674;2024-03-08T00:07:54;35.67;5.00;39.08;;
4048;Laerm;2038;51.728;6.674;2024-03-08T00:10:20;35.64;26.91;39.08;;
4048;Laerm;2038;51.728;6.674;2024-03-08T00:12:47;35.65;5.00;39.08;;
4048;Laerm;2038;51.728;6.674;2024-03-08T00:15:16;35.66;23.90;39.21;;
4048;Laerm;2038;51.728;6.674;2024-03-08T00:17:44;35.67;23.90;39.21;;
4048;Laerm;2038;51.728;6.674;2024-03-08T00:20:11;35.67;23.90;39.34;;
4048;Laerm;2038;51.728;6.674;2024-03-08T00:22:39;35.60;26.91;38.95;;
4048;Laerm;2038;51.728;6.674;2024-03-08T00:25:07;35.68;26.91;39.21;;
4048;Laerm;2038;51.728;6.674;2024-03-08T00:27:37;35.64;26.91;39.34;;
4048;Laerm;2038;51.728;6.674;2024-03-08T00:30:05;35.65;26.91;39.70;;
4048;Laerm;2038;51.728;6.674;2024-03-08T00:32:31;35.68;23.90;39.34;;
4048;Laerm;2038;51.728;6.674;2024-03-08T00:34:58;35.66;23.90;39.08;;
4048;Laerm;2038;51.728;6.674;2024-03-08T00:37:24;35.67;23.90;39.34;;
4048;Laerm;2038;51.728;6.674;2024-03-08T00:39:54;35.69;26.91;39.21;;
4048;Laerm;2038;51.728;6.674;2024-03-08T00:42:21;35.65;23.90;39.34;;
4048;Laerm;2038;51.728;6.674;2024-03-08T00:44:47;35.64;5.00;38.95;;
4048;Laerm;2038;51.728;6.674;2024-03-08T00:47:17;35.69;26.91;39.08;;
4048;Laerm;2038;51.728;6.674;2024-03-08T00:49:44;35.65;26.91;38.95;;
4048;Laerm;2038;51.728;6.674;2024-03-08T00:52:10;35.62;23.90;39.81;;
4048;Laerm;2038;51.728;6.674;2024-03-08T00:54:36;35.65;26.91;39.08;;
4048;Laerm;2038;51.728;6.674;2024-03-08T00:57:03;35.67;23.90;39.58;;
4048;Laerm;2038;51.728;6.674;2024-03-08T00:59:30;35.62;28.67;39.46;;
4048;Laerm;2038;51.728;6.674;2024-03-08T01:02:00;35.65;26.91;39.21;;
4048;Laerm;2038;51.728;6.674;2024-03-08T01:04:27;35.67;23.90;39.58;;
4048;Laerm;2038;51.728;6.674;2024-03-08T01:06:56;35.67;23.90;39.08;;
4048;Laerm;2038;51.728;6.674;2024-03-08T01:09:24;35.63;26.91;39.08;;
4048;Laerm;2038;51.728;6.674;2024-03-08T01:11:50;35.68;23.90;39.21;;
4048;Laerm;2038;51.728;6.674;2024-03-08T01:14:17;35.67;23.90;38.95;;
4048;Laerm;2038;51.728;6.674;2024-03-08T01:16:43;35.65;26.91;38.95;;
4048;Laerm;2038;51.728;6.674;2024-03-08T01:19:10;35.68;23.90;39.08;;
4048;Laerm;2038;51.728;6.674;2024-03-08T01:21:36;35.64;23.90;38.81;;
4048;Laerm;2038;51.728;6.674;2024-03-08T01:24:02;35.64;23.90;39.21;;
4048;Laerm;2038;51.728;6.674;2024-03-08T01:26:29;35.65;26.91;39.08;;
4048;Laerm;2038;51.728;6.674;2024-03-08T01:28:55;35.67;23.90;39.21;;
4048;Laerm;2038;51.728;6.674;2024-03-08T01:31:21;35.63;26.91;39.58;;
4048;Laerm;2038;51.728;6.674;2024-03-08T01:33:47;35.63;23.90;38.95;;
4048;Laerm;2038;51.728;6.674;2024-03-08T01:36:16;35.65;26.91;38.95;;
4048;Laerm;2038;51.728;6.674;2024-03-08T01:38:43;35.62;23.90;39.08;;
4048;Laerm;2038;51.728;6.674;2024-03-08T01:41:09;35.66;26.91;38.95;;
4048;Laerm;2038;51.728;6.674;2024-03-08T01:43:35;35.65;26.91;38.81;;
4048;Laerm;2038;51.728;6.674;2024-03-08T01:46:02;35.60;26.91;38.95;;
4048;Laerm;2038;51.728;6.674;2024-03-08T01:48:29;35.67;26.56;39.08;;
4048;Laerm;2038;51.728;6.674;2024-03-08T01:50:57;35.63;26.91;39.46;;
4048;Laerm;2038;51.728;6.674;2024-03-08T01:53:26;35.62;23.90;39.46;;
4048;Laerm;2038;51.728;6.674;2024-03-08T01:55:57;35.62;23.90;39.08;;
4048;Laerm;2038;51.728;6.674;2024-03-08T01:58:28;35.66;23.90;38.81;;
4048;Laerm;2038;51.728;6.674;2024-03-08T02:00:57;35.64;23.90;38.99;;
4048;Laerm;2038;51.728;6.674;2024-03-08T02:03:24;35.66;23.90;39.08;;
4048;Laerm;2038;51.728;6.674;2024-03-08T02:05:51;35.67;23.90;39.08;;
4048;Laerm;2038;51.728;6.674;2024-03-08T02:08:21;35.62;5.00;39.70;;
4048;Laerm;2038;51.728;6.674;2024-03-08T02:10:49;35.63;26.91;39.21;;
4048;Laerm;2038;51.728;6.674;2024-03-08T02:13:15;35.64;23.90;39.46;;
4048;Laerm;2038;51.728;6.674;2024-03-08T02:16:00;35.62;5.00;38.95;;
4048;Laerm;2038;51.728;6.674;2024-03-08T02:18:28;35.65;23.90;39.46;;
4048;Laerm;2038;51.728;6.674;2024-03-08T02:20:57;35.64;23.90;39.08;;
4048;Laerm;2038;51.728;6.674;2024-03-08T02:23:24;35.64;26.91;38.95;;
4048;Laerm;2038;51.728;6.674;2024-03-08T02:25:52;35.64;23.90;38.99;;
4048;Laerm;2038;51.728;6.674;2024-03-08T02:28:20;35.64;26.91;39.34;;
4048;Laerm;2038;51.728;6.674;2024-03-08T02:30:47;35.64;26.91;38.95;;
4048;Laerm;2038;51.728;6.674;2024-03-08T02:33:15;35.65;26.91;39.21;;
4048;Laerm;2038;51.728;6.674;2024-03-08T02:35:46;35.63;23.90;39.21;;
4048;Laerm;2038;51.728;6.674;2024-03-08T02:38:21;35.58;23.90;39.08;;
4048;Laerm;2038;51.728;6.674;2024-03-08T02:40:50;35.67;26.56;38.95;;
4048;Laerm;2038;51.728;6.674;2024-03-08T02:43:19;35.59;26.91;38.81;;
4048;Laerm;2038;51.728;6.674;2024-03-08T02:45:46;35.63;26.91;39.21;;
4048;Laerm;2038;51.728;6.674;2024-03-08T02:48:14;35.60;23.90;38.95;;
4048;Laerm;2038;51.728;6.674;2024-03-08T02:50:41;35.61;26.91;38.95;;
4048;Laerm;2038;51.728;6.674;2024-03-08T02:53:08;35.63;5.00;39.34;;
4048;Laerm;2038;51.728;6.674;2024-03-08T02:55:36;35.65;23.90;39.21;;
4048;Laerm;2038;51.728;6.674;2024-03-08T02:58:03;35.64;26.91;38.81;;
4048;Laerm;2038;51.728;6.674;2024-03-08T03:00:30;35.64;5.00;39.21;;
4048;Laerm;2038;51.728;6.674;2024-03-08T03:03:00;35.63;26.91;38.81;;
4048;Laerm;2038;51.728;6.674;2024-03-08T03:05:29;35.63;23.90;39.58;;
4048;Laerm;2038;51.728;6.674;2024-03-08T03:07:56;35.62;23.90;38.95;;
4048;Laerm;2038;51.728;6.674;2024-03-08T03:10:24;35.65;23.90;39.21;;
4048;Laerm;2038;51.728;6.674;2024-03-08T03:12:50;35.61;23.90;39.34;;
4048;Laerm;2038;51.728;6.674;2024-03-08T03:15:17;35.64;26.91;39.21;;
4048;Laerm;2038;51.728;6.674;2024-03-08T03:17:50;35.60;26.91;39.21;;
4048;Laerm;2038;51.728;6.674;2024-03-08T03:20:18;35.61;23.90;38.95;;
4048;Laerm;2038;51.728;6.674;2024-03-08T03:22:49;35.60;23.90;39.08;;
4048;Laerm;2038;51.728;6.674;2024-03-08T03:25:21;35.60;26.91;39.46;;
4048;Laerm;2038;51.728;6.674;2024-03-08T03:28:02;35.64;23.90;39.34;;
4048;Laerm;2038;51.728;6.674;2024-03-08T03:30:28;35.65;23.90;39.08;;
4048;Laerm;2038;51.728;6.674;2024-03-08T03:33:00;35.61;23.90;39.34;;
4048;Laerm;2038;51.728;6.674;2024-03-08T03:35:28;35.62;26.91;38.81;;
4048;Laerm;2038;51.728;6.674;2024-03-08T03:37:55;35.60;26.91;39.11;;
4048;Laerm;2038;51.728;6.674;2024-03-08T03:40:36;35.60;5.00;39.21;;
4048;Laerm;2038;51.728;6.674;2024-03-08T03:43:03;35.63;26.91;39.34;;
4048;Laerm;2038;51.728;6.674;2024-03-08T03:45:30;35.64;5.00;39.34;;
4048;Laerm;2038;51.728;6.674;2024-03-08T03:47:59;35.61;26.91;39.08;;
4048;Laerm;2038;51.728;6.674;2024-03-08T03:50:26;35.64;23.90;38.95;;
4048;Laerm;2038;51.728;6.674;2024-03-08T03:52:52;35.63;26.91;39.08;;
4048;Laerm;2038;51.728;6.674;2024-03-08T03:55:19;35.59;5.00;39.11;;
4048;Laerm;2038;51.728;6.674;2024-03-08T03:57:46;35.63;5.00;39.08;;
4048;Laerm;2038;51.728;6.674;2024-03-08T04:00:13;35.62;23.90;39.08;;
4048;Laerm;2038;51.728;6.674;2024-03-08T04:02:40;35.62;26.56;39.46;;
4048;Laerm;2038;51.728;6.674;2024-03-08T04:05:08;35.62;23.55;39.08;;
4048;Laerm;2038;51.728;6.674;2024-03-08T04:07:36;35.61;23.90;39.21;;
4048;Laerm;2038;51.728;6.674;2024-03-08T04:10:04;35.60;5.00;39.46;;
4048;Laerm;2038;51.728;6.674;2024-03-08T04:12:33;35.61;23.90;39.21;;
4048;Laerm;2038;51.728;6.674;2024-03-08T04:14:59;35.59;23.90;39.08;;
4048;Laerm;2038;51.728;6.674;2024-03-08T04:17:26;35.62;23.90;39.34;;
4048;Laerm;2038;51.728;6.674;2024-03-08T04:19:52;35.63;26.56;38.95;;
4048;Laerm;2038;51.728;6.674;2024-03-08T04:22:19;35.62;28.32;39.21;;
4048;Laerm;2038;51.728;6.674;2024-03-08T04:24:46;35.60;26.91;39.46;;
4048;Laerm;2038;51.728;6.674;2024-03-08T04:27:14;35.59;28.67;38.87;;
4048;Laerm;2038;51.728;6.674;2024-03-08T04:29:40;35.60;26.91;38.81;;
4048;Laerm;2038;51.728;6.674;2024-03-08T04:32:08;35.59;5.00;39.08;;
4048;Laerm;2038;51.728;6.674;2024-03-08T04:34:34;35.59;23.90;39.34;;
4048;Laerm;2038;51.728;6.674;2024-03-08T04:37:02;35.55;28.32;39.21;;
4048;Laerm;2038;51.728;6.674;2024-03-08T04:39:28;35.57;23.90;39.21;;
4048;Laerm;2038;51.728;6.674;2024-03-08T04:41:59;35.58;23.90;39.21;;
4048;Laerm;2038;51.728;6.674;2024-03-08T04:44:30;35.61;23.90;39.08;;
4048;Laerm;2038;51.728;6.674;2024-03-08T04:46:56;35.60;23.90;39.21;;
4048;Laerm;2038;51.728;6.674;2024-03-08T04:49:23;35.61;23.90;39.08;;
4048;Laerm;2038;51.728;6.674;2024-03-08T04:51:49;35.60;28.67;39.34;;
4048;Laerm;2038;51.728;6.674;2024-03-08T04:54:15;35.58;5.00;38.67;;
4048;Laerm;2038;51.728;6.674;2024-03-08T04:56:41;35.59;28.67;40.03;;
4048;Laerm;2038;51.728;6.674;2024-03-08T04:59:08;35.59;23.90;38.81;;
4048;Laerm;2038;51.728;6.674;2024-03-08T05:01:34;35.61;23.90;38.95;;
4048;Laerm;2038;51.728;6.674;2024-03-08T05:04:04;35.62;26.56;39.08;;
4048;Laerm;2038;51.728;6.674;2024-03-08T05:06:30;35.64;23.90;39.81;;
4048;Laerm;2038;51.728;6.674;2024-03-08T05:08:56;35.63;23.90;39.34;;
4048;Laerm;2038;51.728;6.674;2024-03-08T05:11:23;35.61;26.91;38.95;;
4048;Laerm;2038;51.728;6.674;2024-03-08T05:13:49;35.62;23.90;39.34;;
4048;Laerm;2038;51.728;6.674;2024-03-08T05:16:15;35.63;5.00;39.34;;
4048;Laerm;2038;51.728;6.674;2024-03-08T05:18:41;35.59;5.00;39.34;;
4048;Laerm;2038;51.728;6.674;2024-03-08T05:21:08;35.57;5.00;38.95;;
4048;Laerm;2038;51.728;6.674;2024-03-08T05:23:35;35.59;26.91;39.34;;
4048;Laerm;2038;51.728;6.674;2024-03-08T05:26:01;35.59;23.90;39.21;;
4048;Laerm;2038;51.728;6.674;2024-03-08T05:28:28;35.60;5.00;39.08;;
4048;Laerm;2038;51.728;6.674;2024-03-08T05:30:54;35.57;26.91;38.95;;
4048;Laerm;2038;51.728;6.674;2024-03-08T05:33:22;35.58;23.90;38.95;;
4048;Laerm;2038;51.728;6.674;2024-03-08T05:35:49;35.60;26.91;38.81;;
4048;Laerm;2038;51.728;6.674;2024-03-08T05:38:16;35.61;26.91;39.08;;
4048;Laerm;2038;51.728;6.674;2024-03-08T05:40:42;35.61;26.91;38.95;;
4048;Laerm;2038;51.728;6.674;2024-03-08T05:43:09;35.62;26.91;38.95;;
4048;Laerm;2038;51.728;6.674;2024-03-08T05:45:35;35.63;26.91;39.08;;
4048;Laerm;2038;51.728;6.674;2024-03-08T05:48:01;35.61;26.91;38.81;;
4048;Laerm;2038;51.728;6.674;2024-03-08T05:50:28;35.60;23.90;39.08;;
4048;Laerm;2038;51.728;6.674;2024-03-08T05:52:54;35.57;23.90;39.08;;
4048;Laerm;2038;51.728;6.674;2024-03-08T05:55:21;35.60;23.90;38.95;;
4048;Laerm;2038;51.728;6.674;2024-03-08T05:57:48;35.59;5.00;39.08;;
4048;Laerm;2038;51.728;6.674;2024-03-08T06:00:15;35.64;26.91;39.08;;
4048;Laerm;2038;51.728;6.674;2024-03-08T06:02:42;35.62;5.00;39.21;;
4048;Laerm;2038;51.728;6.674;2024-03-08T06:05:11;35.67;26.91;39.08;;
4048;Laerm;2038;51.728;6.674;2024-03-08T06:07:38;35.62;23.90;39.21;;
4048;Laerm;2038;51.728;6.674;2024-03-08T06:10:10;35.60;23.90;39.08;;
4048;Laerm;2038;51.728;6.674;2024-03-08T06:12:38;35.63;26.91;39.34;;
4048;Laerm;2038;51.728;6.674;2024-03-08T06:15:09;35.55;26.56;39.08;;
4048;Laerm;2038;51.728;6.674;2024-03-08T06:17:36;35.61;26.91;39.34;;
4048;Laerm;2038;51.728;6.674;2024-03-08T06:20:03;35.58;28.32;39.81;;
4048;Laerm;2038;51.728;6.674;2024-03-08T06:22:37;35.61;23.90;38.95;;
4048;Laerm;2038;51.728;6.674;2024-03-08T06:25:08;35.62;5.00;39.46;;
4048;Laerm;2038;51.728;6.674;2024-03-08T06:27:34;35.61;23.90;39.46;;
4048;Laerm;2038;51.728;6.674;2024-03-08T06:30:01;35.62;26.91;39.08;;
4048;Laerm;2038;51.728;6.674;2024-03-08T06:32:27;35.58;23.90;39.21;;
4048;Laerm;2038;51.728;6.674;2024-03-08T06:34:54;35.60;23.90;38.81;;
4048;Laerm;2038;51.728;6.674;2024-03-08T06:37:20;35.58;28.32;38.81;;
4048;Laerm;2038;51.728;6.674;2024-03-08T06:39:48;35.60;5.00;39.21;;
4048;Laerm;2038;51.728;6.674;2024-03-08T06:42:14;35.59;23.90;39.08;;
4048;Laerm;2038;51.728;6.674;2024-03-08T06:44:41;35.57;23.90;38.81;;
4048;Laerm;2038;51.728;6.674;2024-03-08T06:47:15;35.61;26.91;39.08;;
4048;Laerm;2038;51.728;6.674;2024-03-08T06:49:45;35.61;26.91;39.34;;
4048;Laerm;2038;51.728;6.674;2024-03-08T06:52:11;35.64;23.90;39.08;;
4048;Laerm;2038;51.728;6.674;2024-03-08T06:54:38;35.62;26.91;39.08;;
4048;Laerm;2038;51.728;6.674;2024-03-08T06:57:05;35.60;23.90;39.21;;
4048;Laerm;2038;51.728;6.674;2024-03-08T06:59:34;35.60;23.90;38.95;;
4048;Laerm;2038;51.728;6.674;2024-03-08T07:02:02;35.60;26.91;38.95;;
4048;Laerm;2038;51.728;6.674;2024-03-08T07:04:28;35.59;23.90;39.81;;
4048;Laerm;2038;51.728;6.674;2024-03-08T07:06:58;35.60;23.90;39.08;;
4048;Laerm;2038;51.728;6.674;2024-03-08T07:09:25;35.62;23.90;38.95;;
4048;Laerm;2038;51.728;6.674;2024-03-08T07:11:51;35.60;23.90;39.08;;
4048;Laerm;2038;51.728;6.674;2024-03-08T07:14:22;35.66;26.91;38.99;;
4048;Laerm;2038;51.728;6.674;2024-03-08T07:16:49;35.61;23.90;38.81;;
4048;Laerm;2038;51.728;6.674;2024-03-08T07:19:15;35.63;5.00;38.81;;
4048;Laerm;2038;51.728;6.674;2024-03-08T07:21:43;35.63;23.90;39.34;;
4048;Laerm;2038;51.728;6.674;2024-03-08T07:24:11;35.62;5.00;39.08;;
4048;Laerm;2038;51.728;6.674;2024-03-08T07:26:46;35.65;23.90;39.21;;
4048;Laerm;2038;51.728;6.674;2024-03-08T07:29:16;35.63;26.91;39.21;;
4048;Laerm;2038;51.728;6.674;2024-03-08T07:31:42;35.64;23.90;39.34;;
4048;Laerm;2038;51.728;6.674;2024-03-08T07:34:22;35.64;26.91;38.95;;
4048;Laerm;2038;51.728;6.674;2024-03-08T07:36:48;35.66;26.91;39.08;;
4048;Laerm;2038;51.728;6.674;2024-03-08T07:39:16;35.63;23.90;39.46;;
4048;Laerm;2038;51.728;6.674;2024-03-08T07:41:43;35.71;26.91;39.21;;
4048;Laerm;2038;51.728;6.674;2024-03-08T07:44:09;35.63;26.91;39.08;;
4048;Laerm;2038;51.728;6.674;2024-03-08T07:46:36;35.67;23.90;39.46;;
4048;Laerm;2038;51.728;6.674;2024-03-08T07:49:03;35.65;26.91;38.95;;
4048;Laerm;2038;51.728;6.674;2024-03-08T07:51:29;35.65;23.90;38.95;;
4048;Laerm;2038;51.728;6.674;2024-03-08T07:53:56;35.65;26.91;39.46;;
4048;Laerm;2038;51.728;6.674;2024-03-08T07:56:23;35.72;26.91;39.34;;
4048;Laerm;2038;51.728;6.674;2024-03-08T07:58:49;35.66;23.90;38.87;;
4048;Laerm;2038;51.728;6.674;2024-03-08T08:01:19;35.69;23.90;39.08;;
4048;Laerm;2038;51.728;6.674;2024-03-08T08:03:46;35.71;23.90;39.34;;
4048;Laerm;2038;51.728;6.674;2024-03-08T08:06:15;35.66;28.67;39.21;;
4048;Laerm;2038;51.728;6.674;2024-03-08T08:08:43;35.69;26.91;39.34;;
4048;Laerm;2038;51.728;6.674;2024-03-08T08:11:10;35.67;23.90;39.34;;
4048;Laerm;2038;51.728;6.674;2024-03-08T08:13:37;35.68;26.91;39.21;;
4048;Laerm;2038;51.728;6.674;2024-03-08T08:16:04;35.67;23.90;39.08;;
4048;Laerm;2038;51.728;6.674;2024-03-08T08:18:32;35.68;23.90;38.95;;
4048;Laerm;2038;51.728;6.674;2024-03-08T08:20:59;35.68;23.90;39.08;;
4048;Laerm;2038;51.728;6.674;2024-03-08T08:23:28;35.69;23.90;39.08;;
4048;Laerm;2038;51.728;6.674;2024-03-08T08:25:55;35.72;5.00;39.34;;
4048;Laerm;2038;51.728;6.674;2024-03-08T08:28:22;35.72;23.90;38.81;;
4048;Laerm;2038;51.728;6.674;2024-03-08T08:30:48;35.70;23.90;39.21;;
4048;Laerm;2038;51.728;6.674;2024-03-08T08:33:15;35.71;26.91;39.46;;
4048;Laerm;2038;51.728;6.674;2024-03-08T08:35:41;35.69;26.56;39.08;;
4048;Laerm;2038;51.728;6.674;2024-03-08T08:38:08;35.69;23.90;38.95;;
4048;Laerm;2038;51.728;6.674;2024-03-08T08:40:35;35.75;23.90;39.46;;
4048;Laerm;2038;51.728;6.674;2024-03-08T08:43:03;35.70;26.56;39.21;;
4048;Laerm;2038;51.728;6.674;2024-03-08T08:45:33;35.70;26.91;39.08;;
4048;Laerm;2038;51.728;6.674;2024-03-08T08:48:00;35.71;23.90;39.21;;
4048;Laerm;2038;51.728;6.674;2024-03-08T08:50:26;35.75;26.91;39.46;;
4048;Laerm;2038;51.728;6.674;2024-03-08T08:52:55;35.73;26.91;39.21;;
4048;Laerm;2038;51.728;6.674;2024-03-08T08:55:22;35.71;26.91;39.08;;
4048;Laerm;2038;51.728;6.674;2024-03-08T08:57:53;35.74;23.90;39.08;;
4048;Laerm;2038;51.728;6.674;2024-03-08T09:00:20;35.74;23.90;39.34;;
4048;Laerm;2038;51.728;6.674;2024-03-08T09:02:47;35.72;23.90;39.92;;
4048;Laerm;2038;51.728;6.674;2024-03-08T09:05:14;35.73;23.90;39.21;;
4048;Laerm;2038;51.728;6.674;2024-03-08T09:07:45;35.75;26.56;39.34;;
4048;Laerm;2038;51.728;6.674;2024-03-08T09:10:12;35.70;26.91;39.34;;
4048;Laerm;2038;51.728;6.674;2024-03-08T09:12:40;35.76;26.91;39.46;;
4048;Laerm;2038;51.728;6.674;2024-03-08T09:15:07;35.78;28.67;39.21;;
4048;Laerm;2038;51.728;6.674;2024-03-08T09:17:40;35.76;26.91;38.95;;
4048;Laerm;2038;51.728;6.674;2024-03-08T09:20:10;35.80;23.90;39.58;;
4048;Laerm;2038;51.728;6.674;2024-03-08T09:22:43;35.78;28.67;39.34;;
4048;Laerm;2038;51.728;6.674;2024-03-08T09:25:10;35.80;23.90;39.21;;
4048;Laerm;2038;51.728;6.674;2024-03-08T09:27:36;35.78;23.90;39.21;;
4048;Laerm;2038;51.728;6.674;2024-03-08T09:30:03;35.76;26.91;39.21;;
4048;Laerm;2038;51.728;6.674;2024-03-08T09:32:30;35.82;5.00;39.34;;
4048;Laerm;2038;51.728;6.674;2024-03-08T09:34:56;35.76;23.90;39.21;;
4048;Laerm;2038;51.728;6.674;2024-03-08T09:37:22;35.83;5.00;39.21;;
4048;Laerm;2038;51.728;6.674;2024-03-08T09:39:49;35.79;28.67;39.21;;
4048;Laerm;2038;51.728;6.674;2024-03-08T09:42:16;35.83;26.91;39.08;;
4048;Laerm;2038;51.728;6.674;2024-03-08T09:44:48;35.85;26.91;39.58;;
4048;Laerm;2038;51.728;6.674;2024-03-08T09:47:15;35.77;26.91;39.21;;
4048;Laerm;2038;51.728;6.674;2024-03-08T09:49:42;35.83;23.90;39.46;;
4048;Laerm;2038;51.728;6.674;2024-03-08T09:52:09;35.82;23.90;39.34;;
4048;Laerm;2038;51.728;6.674;2024-03-08T09:54:36;35.80;23.90;39.21;;
4048;Laerm;2038;51.728;6.674;2024-03-08T09:57:06;35.83;28.32;39.81;;
4048;Laerm;2038;51.728;6.674;2024-03-08T09:59:35;35.87;26.91;39.21;;
4048;Laerm;2038;51.728;6.674;2024-03-08T10:02:03;35.81;5.00;39.21;;
4048;Laerm;2038;51.728;6.674;2024-03-08T10:04:30;35.86;26.91;39.11;;
4048;Laerm;2038;51.728;6.674;2024-03-08T10:07:02;35.89;23.90;38.95;;
4048;Laerm;2038;51.728;6.674;2024-03-08T10:09:28;35.82;5.00;39.21;;
4048;Laerm;2038;51.728;6.674;2024-03-08T10:11:58;35.86;28.67;38.95;;
4048;Laerm;2038;51.728;6.674;2024-03-08T10:14:25;35.89;26.91;39.46;;
4048;Laerm;2038;51.728;6.674;2024-03-08T10:16:55;35.89;26.56;39.58;;
4048;Laerm;2038;51.728;6.674;2024-03-08T10:19:26;35.83;28.67;39.34;;
4048;Laerm;2038;51.728;6.674;2024-03-08T10:21:53;35.90;23.90;39.08;;
4048;Laerm;2038;51.728;6.674;2024-03-08T10:24:20;35.86;26.91;39.34;;
4048;Laerm;2038;51.728;6.674;2024-03-08T10:26:46;35.89;26.91;39.08;;
4048;Laerm;2038;51.728;6.674;2024-03-08T10:29:13;35.90;23.90;39.08;;
4048;Laerm;2038;51.728;6.674;2024-03-08T10:31:43;35.91;28.67;39.34;;
4048;Laerm;2038;51.728;6.674;2024-03-08T10:34:12;35.89;23.90;39.58;;
4048;Laerm;2038;51.728;6.674;2024-03-08T10:36:40;35.87;26.91;39.08;;
4048;Laerm;2038;51.728;6.674;2024-03-08T10:39:25;35.92;28.32;38.95;;
4048;Laerm;2038;51.728;6.674;2024-03-08T10:41:58;35.91;26.91;39.21;;
4048;Laerm;2038;51.728;6.674;2024-03-08T10:47:26;35.94;23.90;38.95;;
4048;Laerm;2038;51.728;6.674;2024-03-08T10:50:18;35.93;26.91;39.21;;
4048;Laerm;2038;51.728;6.674;2024-03-08T10:52:50;35.99;26.91;39.34;;
4048;Laerm;2038;51.728;6.674;2024-03-08T10:55:19;35.95;28.67;39.21;;
4048;Laerm;2038;51.728;6.674;2024-03-08T10:57:47;35.95;23.90;39.34;;
4048;Laerm;2038;51.728;6.674;2024-03-08T11:00:14;35.94;28.67;39.34;;
4048;Laerm;2038;51.728;6.674;2024-03-08T11:02:46;35.96;28.67;39.08;;
4048;Laerm;2038;51.728;6.674;2024-03-08T11:05:36;35.96;26.91;39.21;;
4048;Laerm;2038;51.728;6.674;2024-03-08T11:10:51;35.92;23.90;39.21;;
4048;Laerm;2038;51.728;6.674;2024-03-08T11:13:42;35.97;23.90;39.08;;
4048;Laerm;2038;51.728;6.674;2024-03-08T11:21:37;35.99;28.67;39.21;;
4048;Laerm;2038;51.728;6.674;2024-03-08T11:24:13;35.97;29.57;39.46;;
4048;Laerm;2038;51.728;6.674;2024-03-08T11:26:40;36.01;28.67;39.58;;
4048;Laerm;2038;51.728;6.674;2024-03-08T11:34:40;35.98;23.90;39.34;;
4048;Laerm;2038;51.728;6.674;2024-03-08T11:37:17;36.00;23.90;39.46;;
4048;Laerm;2038;51.728;6.674;2024-03-08T11:39:54;36.00;23.90;39.58;;
4048;Laerm;2038;51.728;6.674;2024-03-08T11:42:28;36.00;26.91;39.34;;
4048;Laerm;2038;51.728;6.674;2024-03-08T11:44:55;36.02;26.91;39.34;;
4048;Laerm;2038;51.728;6.674;2024-03-08T11:47:22;36.01;26.91;39.46;;
4048;Laerm;2038;51.728;6.674;2024-03-08T11:49:48;35.99;26.91;39.58;;
4048;Laerm;2038;51.728;6.674;2024-03-08T11:52:17;36.03;23.90;39.34;;
4048;Laerm;2038;51.728;6.674;2024-03-08T11:54:53;36.00;28.67;39.34;;
4048;Laerm;2038;51.728;6.674;2024-03-08T11:57:24;36.02;23.90;39.34;;
4048;Laerm;2038;51.728;6.674;2024-03-08T11:59:55;36.04;28.67;39.08;;
4048;Laerm;2038;51.728;6.674;2024-03-08T12:02:23;36.03;26.91;39.21;;
4048;Laerm;2038;51.728;6.674;2024-03-08T12:04:57;36.01;5.00;39.34;;
4048;Laerm;2038;51.728;6.674;2024-03-08T12:07:26;36.01;23.90;39.21;;
4048;Laerm;2038;51.728;6.674;2024-03-08T12:12:50;36.01;28.67;39.58;;
4048;Laerm;2038;51.728;6.674;2024-03-08T12:15:19;36.04;29.92;39.23;;
4048;Laerm;2038;51.728;6.674;2024-03-08T12:17:49;36.04;26.91;39.46;;
4048;Laerm;2038;51.728;6.674;2024-03-08T12:22:55;35.98;26.91;39.58;;
4048;Laerm;2038;51.728;6.674;2024-03-08T12:25:32;36.01;28.67;39.70;;
4048;Laerm;2038;51.728;6.674;2024-03-08T12:28:12;36.00;26.91;39.34;;
4048;Laerm;2038;51.728;6.674;2024-03-08T12:33:14;35.96;28.67;39.81;;
4048;Laerm;2038;51.728;6.674;2024-03-08T12:35:41;36.02;28.67;39.58;;
4048;Laerm;2038;51.728;6.674;2024-03-08T12:38:15;35.99;28.67;39.34;;
4048;Laerm;2038;51.728;6.674;2024-03-08T12:40:42;36.02;23.90;39.08;;
4048;Laerm;2038;51.728;6.674;2024-03-08T12:43:08;36.04;28.67;39.21;;
4048;Laerm;2038;51.728;6.674;2024-03-08T12:45:34;36.01;23.90;39.46;;
4048;Laerm;2038;51.728;6.674;2024-03-08T12:48:00;35.99;26.91;39.08;;
4048;Laerm;2038;51.728;6.674;2024-03-08T12:50:29;36.02;5.00;39.21;;
4048;Laerm;2038;51.728;6.674;2024-03-08T12:52:56;35.99;28.67;39.08;;
4048;Laerm;2038;51.728;6.674;2024-03-08T12:55:23;36.03;26.91;39.46;;
4048;Laerm;2038;51.728;6.674;2024-03-08T12:57:49;36.02;28.67;39.21;;
4048;Laerm;2038;51.728;6.674;2024-03-08T13:00:16;36.00;26.91;39.34;;
4048;Laerm;2038;51.728;6.674;2024-03-08T13:02:48;36.00;26.91;39.34;;
4048;Laerm;2038;51.728;6.674;2024-03-08T13:05:17;35.98;26.91;38.95;;
4048;Laerm;2038;51.728;6.674;2024-03-08T13:07:43;36.02;26.91;39.35;;
4048;Laerm;2038;51.728;6.674;2024-03-08T13:10:14;36.03;26.91;39.46;;
4048;Laerm;2038;51.728;6.674;2024-03-08T13:12:44;35.99;23.90;39.08;;
4048;Laerm;2038;51.728;6.674;2024-03-08T13:15:11;35.98;28.67;39.08;;
4048;Laerm;2038;51.728;6.674;2024-03-08T13:17:42;36.04;28.67;39.46;;
4048;Laerm;2038;51.728;6.674;2024-03-08T13:20:11;36.04;26.91;39.34;;
4048;Laerm;2038;51.728;6.674;2024-03-08T13:22:42;36.01;5.00;39.21;;
4048;Laerm;2038;51.728;6.674;2024-03-08T13:25:09;36.07;26.91;39.34;;
4048;Laerm;2038;51.728;6.674;2024-03-08T13:27:41;36.01;28.67;39.21;;
4048;Laerm;2038;51.728;6.674;2024-03-08T13:30:09;36.03;28.32;38.95;;
4048;Laerm;2038;51.728;6.674;2024-03-08T13:32:40;36.02;26.91;39.21;;
4048;Laerm;2038;51.728;6.674;2024-03-08T13:35:10;36.03;28.32;39.34;;
4048;Laerm;2038;51.728;6.674;2024-03-08T13:37:43;36.02;26.91;39.70;;
4048;Laerm;2038;51.728;6.674;2024-03-08T13:40:10;36.01;26.91;39.46;;
4048;Laerm;2038;51.728;6.674;2024-03-08T13:42:43;36.03;28.67;39.46;;
4048;Laerm;2038;51.728;6.674;2024-03-08T13:45:10;36.02;26.91;39.46;;
4048;Laerm;2038;51.728;6.674;2024-03-08T13:47:40;36.01;26.91;39.21;;
4048;Laerm;2038;51.728;6.674;2024-03-08T13:50:11;36.00;28.67;39.46;;
4048;Laerm;2038;51.728;6.674;2024-03-08T13:52:39;36.02;26.91;39.81;;
4048;Laerm;2038;51.728;6.674;2024-03-08T13:55:06;36.03;23.90;39.81;;
4048;Laerm;2038;51.728;6.674;2024-03-08T13:57:33;36.04;28.67;39.21;;
4048;Laerm;2038;51.728;6.674;2024-03-08T13:59:59;36.06;26.91;39.21;;
4048;Laerm;2038;51.728;6.674;2024-03-08T14:02:26;36.05;28.32;39.58;;
4048;Laerm;2038;51.728;6.674;2024-03-08T14:04:57;36.09;26.91;40.03;;
4048;Laerm;2038;51.728;6.674;2024-03-08T14:07:23;36.04;26.91;39.46;;
4048;Laerm;2038;51.728;6.674;2024-03-08T14:09:50;36.03;26.91;39.21;;
4048;Laerm;2038;51.728;6.674;2024-03-08T14:12:19;36.04;28.67;39.34;;
4048;Laerm;2038;51.728;6.674;2024-03-08T14:14:45;36.02;23.90;39.08;;
4048;Laerm;2038;51.728;6.674;2024-03-08T14:17:12;36.03;26.91;39.21;;
4048;Laerm;2038;51.728;6.674;2024-03-08T14:19:43;36.04;26.91;39.21;;
4048;Laerm;2038;51.728;6.674;2024-03-08T14:22:09;36.04;26.91;39.34;;
4048;Laerm;2038;51.728;6.674;2024-03-08T14:24:41;36.06;26.91;39.21;;
4048;Laerm;2038;51.728;6.674;2024-03-08T14:27:09;36.03;28.67;39.21;;
4048;Laerm;2038;51.728;6.674;2024-03-08T14:29:36;36.06;28.67;39.34;;
4048;Laerm;2038;51.728;6.674;2024-03-08T14:32:02;36.04;23.90;40.03;;
4048;Laerm;2038;51.728;6.674;2024-03-08T14:34:32;36.01;28.67;39.34;;
4048;Laerm;2038;51.728;6.674;2024-03-08T14:37:00;35.99;28.67;39.46;;
4048;Laerm;2038;51.728;6.674;2024-03-08T14:39:27;36.07;28.67;39.08;;